sensor_id;sensor_type;location;lat;lon;timestamp;P1;durP1;ratioP1;P2;durP2;ratioP2
8060;SDS011;4073;42.626;25.386;2023-03-03T00:02:16;47.53;;;30.83;;
8060;SDS011;4073;42.626;25.386;2023-03-03T00:04:42;47.77;;;29.20;;
8060;SDS011;4073;42.626;25.386;2023-03-03T00:07:07;43.47;;;29.30;;
8060;SDS011;4073;42.626;25.386;2023-03-03T00:09:33;47.03;;;27.50;;
8060;SDS011;4073;42.626;25.386;2023-03-03T00:11:58;44.27;;;28.37;;
8060;SDS011;4073;42.626;25.386;2023-03-03T00:14:29;48.60;;;28.47;;
8060;SDS011;4073;42.626;25.386;2023-03-03T00:16:57;42.63;;;25.70;;
8060;SDS011;4073;42.626;25.386;2023-03-03T00:19:25;52.30;;;30.33;;
8060;SDS011;4073;42.626;25.386;2023-03-03T00:21:51;45.23;;;27.73;;
8060;SDS011;4073;42.626;25.386;2023-03-03T00:29:28;40.63;;;26.87;;
8060;SDS011;4073;42.626;25.386;2023-03-03T00:31:54;39.47;;;25.97;;
8060;SDS011;4073;42.626;25.386;2023-03-03T00:34:34;41.23;;;24.60;;
8060;SDS011;4073;42.626;25.386;2023-03-03T00:37:00;45.93;;;25.83;;
8060;SDS011;4073;42.626;25.386;2023-03-03T00:41:57;44.87;;;26.70;;
8060;SDS011;4073;42.626;25.386;2023-03-03T00:44:32;45.33;;;26.83;;
8060;SDS011;4073;42.626;25.386;2023-03-03T00:49:54;41.33;;;23.90;;
8060;SDS011;4073;42.626;25.386;2023-03-03T00:52:44;43.73;;;25.47;;
8060;SDS011;4073;42.626;25.386;2023-03-03T00:55:16;42.60;;;26.77;;
8060;SDS011;4073;42.626;25.386;2023-03-03T00:57:42;37.27;;;24.20;;
8060;SDS011;4073;42.626;25.386;2023-03-03T01:00:07;41.60;;;25.17;;
8060;SDS011;4073;42.626;25.386;2023-03-03T01:02:34;44.63;;;25.90;;
8060;SDS011;4073;42.626;25.386;2023-03-03T01:04:59;42.60;;;27.17;;
8060;SDS011;4073;42.626;25.386;2023-03-03T01:07:24;47.50;;;26.17;;
8060;SDS011;4073;42.626;25.386;2023-03-03T01:09:50;44.83;;;24.47;;
8060;SDS011;4073;42.626;25.386;2023-03-03T01:12:15;41.97;;;26.23;;
8060;SDS011;4073;42.626;25.386;2023-03-03T01:14:41;41.30;;;27.57;;
8060;SDS011;4073;42.626;25.386;2023-03-03T01:17:07;51.37;;;27.80;;
8060;SDS011;4073;42.626;25.386;2023-03-03T01:19:32;36.97;;;24.37;;
8060;SDS011;4073;42.626;25.386;2023-03-03T01:21:58;38.67;;;24.43;;
8060;SDS011;4073;42.626;25.386;2023-03-03T01:24:24;36.90;;;23.73;;
8060;SDS011;4073;42.626;25.386;2023-03-03T01:26:49;43.90;;;24.07;;
8060;SDS011;4073;42.626;25.386;2023-03-03T01:29:14;38.00;;;21.70;;
8060;SDS011;4073;42.626;25.386;2023-03-03T01:31:40;45.37;;;24.57;;
8060;SDS011;4073;42.626;25.386;2023-03-03T01:34:05;39.10;;;24.50;;
8060;SDS011;4073;42.626;25.386;2023-03-03T01:36:31;35.43;;;22.17;;
8060;SDS011;4073;42.626;25.386;2023-03-03T01:38:57;39.37;;;23.53;;
8060;SDS011;4073;42.626;25.386;2023-03-03T01:41:25;40.80;;;24.20;;
8060;SDS011;4073;42.626;25.386;2023-03-03T01:43:54;44.90;;;24.80;;
8060;SDS011;4073;42.626;25.386;2023-03-03T01:48:48;45.27;;;25.40;;
8060;SDS011;4073;42.626;25.386;2023-03-03T01:53:44;35.63;;;22.37;;
8060;SDS011;4073;42.626;25.386;2023-03-03T01:56:14;38.50;;;24.97;;
8060;SDS011;4073;42.626;25.386;2023-03-03T01:58:43;37.13;;;22.43;;
8060;SDS011;4073;42.626;25.386;2023-03-03T02:01:12;33.63;;;21.67;;
8060;SDS011;4073;42.626;25.386;2023-03-03T02:03:42;38.33;;;23.70;;
8060;SDS011;4073;42.626;25.386;2023-03-03T02:06:09;35.93;;;22.53;;
8060;SDS011;4073;42.626;25.386;2023-03-03T02:11:20;32.33;;;21.03;;
8060;SDS011;4073;42.626;25.386;2023-03-03T02:13:46;38.30;;;21.77;;
8060;SDS011;4073;42.626;25.386;2023-03-03T02:16:12;33.47;;;21.77;;
8060;SDS011;4073;42.626;25.386;2023-03-03T02:18:38;40.50;;;24.90;;
8060;SDS011;4073;42.626;25.386;2023-03-03T02:21:36;50.87;;;31.57;;
8060;SDS011;4073;42.626;25.386;2023-03-03T02:24:15;32.00;;;20.07;;
8060;SDS011;4073;42.626;25.386;2023-03-03T02:26:49;40.00;;;22.13;;
8060;SDS011;4073;42.626;25.386;2023-03-03T02:29:15;34.27;;;20.27;;
8060;SDS011;4073;42.626;25.386;2023-03-03T02:31:40;36.60;;;21.13;;
8060;SDS011;4073;42.626;25.386;2023-03-03T02:34:07;33.17;;;19.03;;
8060;SDS011;4073;42.626;25.386;2023-03-03T02:36:33;28.50;;;17.60;;
8060;SDS011;4073;42.626;25.386;2023-03-03T02:39:15;31.60;;;19.63;;
8060;SDS011;4073;42.626;25.386;2023-03-03T02:41:54;29.70;;;17.83;;
8060;SDS011;4073;42.626;25.386;2023-03-03T02:44:22;31.27;;;18.90;;
8060;SDS011;4073;42.626;25.386;2023-03-03T02:46:50;33.13;;;19.40;;
8060;SDS011;4073;42.626;25.386;2023-03-03T02:49:19;33.67;;;21.20;;
8060;SDS011;4073;42.626;25.386;2023-03-03T02:51:46;32.97;;;20.40;;
8060;SDS011;4073;42.626;25.386;2023-03-03T02:54:13;31.13;;;20.27;;
8060;SDS011;4073;42.626;25.386;2023-03-03T02:56:40;29.90;;;20.50;;
8060;SDS011;4073;42.626;25.386;2023-03-03T02:59:06;35.07;;;22.20;;
8060;SDS011;4073;42.626;25.386;2023-03-03T03:01:31;36.47;;;21.60;;
8060;SDS011;4073;42.626;25.386;2023-03-03T03:04:02;34.37;;;22.10;;
8060;SDS011;4073;42.626;25.386;2023-03-03T03:06:32;47.67;;;29.73;;
8060;SDS011;4073;42.626;25.386;2023-03-03T03:08:58;34.10;;;22.67;;
8060;SDS011;4073;42.626;25.386;2023-03-03T03:11:24;32.83;;;21.83;;
8060;SDS011;4073;42.626;25.386;2023-03-03T03:13:50;38.00;;;22.03;;
8060;SDS011;4073;42.626;25.386;2023-03-03T03:16:16;33.80;;;21.47;;
8060;SDS011;4073;42.626;25.386;2023-03-03T03:18:42;34.03;;;21.53;;
8060;SDS011;4073;42.626;25.386;2023-03-03T03:21:08;28.17;;;19.33;;
8060;SDS011;4073;42.626;25.386;2023-03-03T03:23:35;30.80;;;19.40;;
8060;SDS011;4073;42.626;25.386;2023-03-03T03:26:00;29.90;;;18.23;;
8060;SDS011;4073;42.626;25.386;2023-03-03T03:28:26;26.03;;;18.13;;
8060;SDS011;4073;42.626;25.386;2023-03-03T03:30:52;30.10;;;18.60;;
8060;SDS011;4073;42.626;25.386;2023-03-03T03:33:17;30.80;;;19.53;;
8060;SDS011;4073;42.626;25.386;2023-03-03T03:35:42;34.73;;;19.73;;
8060;SDS011;4073;42.626;25.386;2023-03-03T03:38:11;31.47;;;19.33;;
8060;SDS011;4073;42.626;25.386;2023-03-03T03:40:37;31.00;;;19.63;;
8060;SDS011;4073;42.626;25.386;2023-03-03T03:43:02;31.70;;;19.70;;
8060;SDS011;4073;42.626;25.386;2023-03-03T03:45:28;30.30;;;20.60;;
8060;SDS011;4073;42.626;25.386;2023-03-03T03:47:54;31.60;;;21.03;;
8060;SDS011;4073;42.626;25.386;2023-03-03T03:50:19;34.83;;;22.73;;
8060;SDS011;4073;42.626;25.386;2023-03-03T03:52:45;36.10;;;21.03;;
8060;SDS011;4073;42.626;25.386;2023-03-03T03:55:10;32.60;;;23.80;;
8060;SDS011;4073;42.626;25.386;2023-03-03T03:57:36;42.13;;;24.37;;
8060;SDS011;4073;42.626;25.386;2023-03-03T04:00:02;32.53;;;22.47;;
8060;SDS011;4073;42.626;25.386;2023-03-03T04:02:29;35.87;;;21.90;;
8060;SDS011;4073;42.626;25.386;2023-03-03T04:04:54;28.57;;;20.40;;
8060;SDS011;4073;42.626;25.386;2023-03-03T04:07:20;35.13;;;21.93;;
8060;SDS011;4073;42.626;25.386;2023-03-03T04:09:45;31.20;;;21.17;;
8060;SDS011;4073;42.626;25.386;2023-03-03T04:12:10;35.97;;;22.83;;
8060;SDS011;4073;42.626;25.386;2023-03-03T04:14:36;31.37;;;22.33;;
8060;SDS011;4073;42.626;25.386;2023-03-03T04:17:02;32.30;;;22.00;;
8060;SDS011;4073;42.626;25.386;2023-03-03T04:19:27;32.03;;;20.70;;
8060;SDS011;4073;42.626;25.386;2023-03-03T04:21:53;31.27;;;19.07;;
8060;SDS011;4073;42.626;25.386;2023-03-03T04:24:18;33.33;;;20.90;;
8060;SDS011;4073;42.626;25.386;2023-03-03T04:26:44;32.33;;;21.53;;
8060;SDS011;4073;42.626;25.386;2023-03-03T04:29:10;31.67;;;19.53;;
8060;SDS011;4073;42.626;25.386;2023-03-03T04:31:35;32.30;;;21.40;;
8060;SDS011;4073;42.626;25.386;2023-03-03T04:34:00;31.30;;;18.97;;
8060;SDS011;4073;42.626;25.386;2023-03-03T04:36:26;28.33;;;21.23;;
8060;SDS011;4073;42.626;25.386;2023-03-03T04:38:51;30.10;;;19.87;;
8060;SDS011;4073;42.626;25.386;2023-03-03T04:41:17;28.93;;;19.67;;
8060;SDS011;4073;42.626;25.386;2023-03-03T04:43:42;29.30;;;19.80;;
8060;SDS011;4073;42.626;25.386;2023-03-03T04:46:08;27.87;;;20.03;;
8060;SDS011;4073;42.626;25.386;2023-03-03T04:48:33;32.07;;;21.67;;
8060;SDS011;4073;42.626;25.386;2023-03-03T04:50:59;36.83;;;22.77;;
8060;SDS011;4073;42.626;25.386;2023-03-03T04:53:24;30.43;;;21.47;;
8060;SDS011;4073;42.626;25.386;2023-03-03T04:55:50;34.17;;;23.10;;
8060;SDS011;4073;42.626;25.386;2023-03-03T04:58:16;34.30;;;23.37;;
8060;SDS011;4073;42.626;25.386;2023-03-03T05:00:43;32.63;;;23.37;;
8060;SDS011;4073;42.626;25.386;2023-03-03T05:03:11;33.03;;;22.47;;
8060;SDS011;4073;42.626;25.386;2023-03-03T05:05:37;31.50;;;22.10;;
8060;SDS011;4073;42.626;25.386;2023-03-03T05:08:02;36.70;;;24.13;;
8060;SDS011;4073;42.626;25.386;2023-03-03T05:10:28;37.03;;;23.43;;
8060;SDS011;4073;42.626;25.386;2023-03-03T05:12:53;36.60;;;26.83;;
8060;SDS011;4073;42.626;25.386;2023-03-03T05:15:19;39.43;;;27.67;;
8060;SDS011;4073;42.626;25.386;2023-03-03T05:17:45;41.53;;;26.53;;
8060;SDS011;4073;42.626;25.386;2023-03-03T05:20:10;39.80;;;24.53;;
8060;SDS011;4073;42.626;25.386;2023-03-03T05:22:37;36.83;;;24.17;;
8060;SDS011;4073;42.626;25.386;2023-03-03T05:25:02;35.80;;;24.03;;
8060;SDS011;4073;42.626;25.386;2023-03-03T05:27:28;38.17;;;24.37;;
8060;SDS011;4073;42.626;25.386;2023-03-03T05:29:54;33.33;;;23.63;;
8060;SDS011;4073;42.626;25.386;2023-03-03T05:32:19;38.17;;;24.53;;
8060;SDS011;4073;42.626;25.386;2023-03-03T05:34:45;35.10;;;24.83;;
8060;SDS011;4073;42.626;25.386;2023-03-03T05:37:10;33.73;;;23.77;;
8060;SDS011;4073;42.626;25.386;2023-03-03T05:39:35;39.07;;;25.90;;
8060;SDS011;4073;42.626;25.386;2023-03-03T05:42:01;37.00;;;25.80;;
8060;SDS011;4073;42.626;25.386;2023-03-03T05:44:27;34.87;;;23.97;;
8060;SDS011;4073;42.626;25.386;2023-03-03T05:46:53;35.57;;;23.80;;
8060;SDS011;4073;42.626;25.386;2023-03-03T05:49:20;32.53;;;23.73;;
8060;SDS011;4073;42.626;25.386;2023-03-03T05:51:46;35.23;;;23.10;;
8060;SDS011;4073;42.626;25.386;2023-03-03T05:54:11;39.63;;;24.83;;
8060;SDS011;4073;42.626;25.386;2023-03-03T05:56:36;34.37;;;23.93;;
8060;SDS011;4073;42.626;25.386;2023-03-03T05:59:02;32.80;;;22.60;;
8060;SDS011;4073;42.626;25.386;2023-03-03T06:01:27;34.40;;;22.83;;
8060;SDS011;4073;42.626;25.386;2023-03-03T06:03:53;34.87;;;23.17;;
8060;SDS011;4073;42.626;25.386;2023-03-03T06:06:18;33.13;;;22.40;;
8060;SDS011;4073;42.626;25.386;2023-03-03T06:08:44;35.30;;;23.93;;
8060;SDS011;4073;42.626;25.386;2023-03-03T06:11:10;33.00;;;23.43;;
8060;SDS011;4073;42.626;25.386;2023-03-03T06:13:35;45.90;;;28.77;;
8060;SDS011;4073;42.626;25.386;2023-03-03T06:16:01;43.53;;;29.27;;
8060;SDS011;4073;42.626;25.386;2023-03-03T06:18:27;38.60;;;27.50;;
8060;SDS011;4073;42.626;25.386;2023-03-03T06:20:53;35.97;;;24.33;;
8060;SDS011;4073;42.626;25.386;2023-03-03T06:23:19;36.57;;;25.37;;
8060;SDS011;4073;42.626;25.386;2023-03-03T06:25:45;36.00;;;23.97;;
8060;SDS011;4073;42.626;25.386;2023-03-03T06:28:11;41.73;;;25.00;;
8060;SDS011;4073;42.626;25.386;2023-03-03T06:30:37;37.43;;;23.33;;
8060;SDS011;4073;42.626;25.386;2023-03-03T06:33:02;30.67;;;22.10;;
8060;SDS011;4073;42.626;25.386;2023-03-03T06:35:28;41.77;;;25.60;;
8060;SDS011;4073;42.626;25.386;2023-03-03T06:37:53;40.80;;;27.60;;
8060;SDS011;4073;42.626;25.386;2023-03-03T06:40:19;36.50;;;25.93;;
8060;SDS011;4073;42.626;25.386;2023-03-03T06:42:44;38.30;;;25.77;;
8060;SDS011;4073;42.626;25.386;2023-03-03T06:45:10;34.27;;;24.13;;
8060;SDS011;4073;42.626;25.386;2023-03-03T06:47:36;35.83;;;25.60;;
8060;SDS011;4073;42.626;25.386;2023-03-03T06:50:01;38.40;;;24.97;;
8060;SDS011;4073;42.626;25.386;2023-03-03T06:52:27;42.07;;;26.23;;
8060;SDS011;4073;42.626;25.386;2023-03-03T06:54:53;33.37;;;25.87;;
8060;SDS011;4073;42.626;25.386;2023-03-03T06:57:28;33.33;;;21.27;;
8060;SDS011;4073;42.626;25.386;2023-03-03T07:00:16;31.63;;;20.67;;
8060;SDS011;4073;42.626;25.386;2023-03-03T07:02:53;38.87;;;26.83;;
8060;SDS011;4073;42.626;25.386;2023-03-03T07:05:23;38.33;;;25.30;;
8060;SDS011;4073;42.626;25.386;2023-03-03T07:07:52;34.50;;;23.17;;
8060;SDS011;4073;42.626;25.386;2023-03-03T07:12:51;36.73;;;24.43;;
8060;SDS011;4073;42.626;25.386;2023-03-03T07:15:24;33.63;;;23.33;;
8060;SDS011;4073;42.626;25.386;2023-03-03T07:17:57;39.53;;;23.97;;
8060;SDS011;4073;42.626;25.386;2023-03-03T07:20:24;38.53;;;25.20;;
8060;SDS011;4073;42.626;25.386;2023-03-03T07:22:56;38.23;;;25.33;;
8060;SDS011;4073;42.626;25.386;2023-03-03T07:25:33;39.87;;;26.80;;
8060;SDS011;4073;42.626;25.386;2023-03-03T07:28:14;33.70;;;24.97;;
8060;SDS011;4073;42.626;25.386;2023-03-03T07:30:48;37.50;;;27.60;;
8060;SDS011;4073;42.626;25.386;2023-03-03T07:33:18;43.40;;;29.97;;
8060;SDS011;4073;42.626;25.386;2023-03-03T07:35:50;43.47;;;27.77;;
8060;SDS011;4073;42.626;25.386;2023-03-03T07:41:25;41.90;;;27.53;;
8060;SDS011;4073;42.626;25.386;2023-03-03T07:43:52;34.30;;;23.50;;
8060;SDS011;4073;42.626;25.386;2023-03-03T07:48:54;35.33;;;24.50;;
8060;SDS011;4073;42.626;25.386;2023-03-03T07:51:23;34.03;;;24.77;;
8060;SDS011;4073;42.626;25.386;2023-03-03T07:53:53;37.97;;;25.13;;
8060;SDS011;4073;42.626;25.386;2023-03-03T07:56:38;31.27;;;21.37;;
8060;SDS011;4073;42.626;25.386;2023-03-03T08:01:53;31.07;;;20.20;;
8060;SDS011;4073;42.626;25.386;2023-03-03T08:04:35;34.30;;;21.03;;
8060;SDS011;4073;42.626;25.386;2023-03-03T08:07:13;30.00;;;23.73;;
8060;SDS011;4073;42.626;25.386;2023-03-03T08:09:50;32.37;;;24.03;;
8060;SDS011;4073;42.626;25.386;2023-03-03T08:12:40;31.73;;;23.70;;
8060;SDS011;4073;42.626;25.386;2023-03-03T08:15:26;33.27;;;23.90;;
8060;SDS011;4073;42.626;25.386;2023-03-03T08:17:55;29.00;;;20.47;;
8060;SDS011;4073;42.626;25.386;2023-03-03T08:22:58;34.43;;;23.23;;
8060;SDS011;4073;42.626;25.386;2023-03-03T08:25:24;33.23;;;22.47;;
8060;SDS011;4073;42.626;25.386;2023-03-03T08:27:49;34.67;;;23.77;;
8060;SDS011;4073;42.626;25.386;2023-03-03T08:30:15;33.47;;;23.23;;
8060;SDS011;4073;42.626;25.386;2023-03-03T08:32:40;49.87;;;31.00;;
8060;SDS011;4073;42.626;25.386;2023-03-03T08:35:06;41.27;;;25.87;;
8060;SDS011;4073;42.626;25.386;2023-03-03T08:37:31;33.03;;;22.37;;
8060;SDS011;4073;42.626;25.386;2023-03-03T08:39:57;33.83;;;20.53;;
8060;SDS011;4073;42.626;25.386;2023-03-03T08:42:22;32.93;;;20.60;;
8060;SDS011;4073;42.626;25.386;2023-03-03T08:44:47;26.20;;;18.37;;
8060;SDS011;4073;42.626;25.386;2023-03-03T08:47:13;21.93;;;15.90;;
8060;SDS011;4073;42.626;25.386;2023-03-03T08:49:38;26.47;;;16.23;;
8060;SDS011;4073;42.626;25.386;2023-03-03T08:52:04;33.87;;;20.97;;
8060;SDS011;4073;42.626;25.386;2023-03-03T08:54:29;25.13;;;16.73;;
8060;SDS011;4073;42.626;25.386;2023-03-03T08:56:55;30.37;;;16.57;;
8060;SDS011;4073;42.626;25.386;2023-03-03T08:59:20;25.07;;;16.30;;
8060;SDS011;4073;42.626;25.386;2023-03-03T09:01:46;25.40;;;17.93;;
8060;SDS011;4073;42.626;25.386;2023-03-03T09:04:11;27.27;;;17.97;;
8060;SDS011;4073;42.626;25.386;2023-03-03T09:06:37;35.93;;;20.20;;
8060;SDS011;4073;42.626;25.386;2023-03-03T09:09:03;32.13;;;19.83;;
8060;SDS011;4073;42.626;25.386;2023-03-03T09:11:29;31.70;;;19.50;;
8060;SDS011;4073;42.626;25.386;2023-03-03T09:14:13;23.33;;;16.30;;
8060;SDS011;4073;42.626;25.386;2023-03-03T09:16:58;18.77;;;14.83;;
8060;SDS011;4073;42.626;25.386;2023-03-03T09:19:30;35.80;;;21.60;;
8060;SDS011;4073;42.626;25.386;2023-03-03T09:22:39;28.27;;;18.73;;
8060;SDS011;4073;42.626;25.386;2023-03-03T09:24:48;22.93;;;16.17;;
8060;SDS011;4073;42.626;25.386;2023-03-03T09:27:18;24.80;;;16.97;;
8060;SDS011;4073;42.626;25.386;2023-03-03T09:29:48;22.67;;;16.93;;
8060;SDS011;4073;42.626;25.386;2023-03-03T09:32:23;20.80;;;15.60;;
8060;SDS011;4073;42.626;25.386;2023-03-03T09:34:49;22.93;;;15.03;;
8060;SDS011;4073;42.626;25.386;2023-03-03T09:37:19;21.10;;;14.73;;
8060;SDS011;4073;42.626;25.386;2023-03-03T09:39:47;20.10;;;14.00;;
8060;SDS011;4073;42.626;25.386;2023-03-03T09:45:45;22.43;;;15.77;;
8060;SDS011;4073;42.626;25.386;2023-03-03T09:48:43;21.87;;;14.10;;
8060;SDS011;4073;42.626;25.386;2023-03-03T09:56:31;28.63;;;18.37;;
8060;SDS011;4073;42.626;25.386;2023-03-03T10:04:41;22.90;;;15.07;;
8060;SDS011;4073;42.626;25.386;2023-03-03T10:20:56;30.63;;;18.97;;
8060;SDS011;4073;42.626;25.386;2023-03-03T10:26:22;21.00;;;15.13;;
8060;SDS011;4073;42.626;25.386;2023-03-03T10:42:41;24.97;;;15.20;;
8060;SDS011;4073;42.626;25.386;2023-03-03T10:54:25;19.47;;;12.50;;
8060;SDS011;4073;42.626;25.386;2023-03-03T10:57:23;19.77;;;14.17;;
8060;SDS011;4073;42.626;25.386;2023-03-03T11:00:58;19.83;;;13.23;;
8060;SDS011;4073;42.626;25.386;2023-03-03T11:11:17;20.77;;;15.67;;
8060;SDS011;4073;42.626;25.386;2023-03-03T11:22:03;20.20;;;13.70;;
8060;SDS011;4073;42.626;25.386;2023-03-03T11:41:00;20.27;;;12.63;;
8060;SDS011;4073;42.626;25.386;2023-03-03T11:43:33;18.33;;;12.20;;
8060;SDS011;4073;42.626;25.386;2023-03-03T11:46:08;18.20;;;12.30;;
8060;SDS011;4073;42.626;25.386;2023-03-03T11:51:18;20.83;;;14.57;;
8060;SDS011;4073;42.626;25.386;2023-03-03T11:53:56;24.07;;;15.97;;
8060;SDS011;4073;42.626;25.386;2023-03-03T11:56:37;19.93;;;14.27;;
8060;SDS011;4073;42.626;25.386;2023-03-03T12:01:56;16.30;;;11.53;;
8060;SDS011;4073;42.626;25.386;2023-03-03T12:07:37;17.13;;;12.00;;
8060;SDS011;4073;42.626;25.386;2023-03-03T12:12:43;18.27;;;12.83;;
8060;SDS011;4073;42.626;25.386;2023-03-03T12:15:18;17.50;;;13.87;;
8060;SDS011;4073;42.626;25.386;2023-03-03T12:26:30;15.33;;;11.67;;
8060;SDS011;4073;42.626;25.386;2023-03-03T12:29:05;14.27;;;11.97;;
8060;SDS011;4073;42.626;25.386;2023-03-03T12:37:18;18.80;;;13.40;;
8060;SDS011;4073;42.626;25.386;2023-03-03T12:50:50;16.70;;;12.30;;
8060;SDS011;4073;42.626;25.386;2023-03-03T12:55:55;18.33;;;13.33;;
8060;SDS011;4073;42.626;25.386;2023-03-03T13:14:11;18.03;;;15.53;;
8060;SDS011;4073;42.626;25.386;2023-03-03T13:16:45;17.53;;;13.53;;
8060;SDS011;4073;42.626;25.386;2023-03-03T13:19:28;17.63;;;12.07;;
8060;SDS011;4073;42.626;25.386;2023-03-03T13:22:05;17.30;;;13.07;;
8060;SDS011;4073;42.626;25.386;2023-03-03T13:27:24;21.33;;;16.07;;
8060;SDS011;4073;42.626;25.386;2023-03-03T13:32:28;19.40;;;16.33;;
8060;SDS011;4073;42.626;25.386;2023-03-03T13:35:04;19.60;;;14.20;;
8060;SDS011;4073;42.626;25.386;2023-03-03T13:37:43;17.97;;;14.53;;
8060;SDS011;4073;42.626;25.386;2023-03-03T13:45:53;15.97;;;13.30;;
8060;SDS011;4073;42.626;25.386;2023-03-03T13:51:22;21.47;;;15.40;;
8060;SDS011;4073;42.626;25.386;2023-03-03T14:00:03;25.30;;;17.33;;
8060;SDS011;4073;42.626;25.386;2023-03-03T14:05:40;24.17;;;15.93;;
8060;SDS011;4073;42.626;25.386;2023-03-03T14:19:18;21.27;;;15.40;;
8060;SDS011;4073;42.626;25.386;2023-03-03T14:24:58;17.73;;;14.50;;
8060;SDS011;4073;42.626;25.386;2023-03-03T14:27:35;19.53;;;14.60;;
8060;SDS011;4073;42.626;25.386;2023-03-03T14:36:00;18.37;;;13.20;;
8060;SDS011;4073;42.626;25.386;2023-03-03T14:38:24;21.17;;;16.60;;
8060;SDS011;4073;42.626;25.386;2023-03-03T14:43:36;20.83;;;15.20;;
8060;SDS011;4073;42.626;25.386;2023-03-03T14:46:47;22.07;;;13.20;;
8060;SDS011;4073;42.626;25.386;2023-03-03T14:49:00;19.60;;;14.43;;
8060;SDS011;4073;42.626;25.386;2023-03-03T14:59:25;24.73;;;16.03;;
8060;SDS011;4073;42.626;25.386;2023-03-03T15:04:26;17.77;;;13.83;;
8060;SDS011;4073;42.626;25.386;2023-03-03T15:06:54;16.97;;;13.30;;
8060;SDS011;4073;42.626;25.386;2023-03-03T15:09:23;15.40;;;11.50;;
8060;SDS011;4073;42.626;25.386;2023-03-03T15:11:52;17.97;;;13.83;;
8060;SDS011;4073;42.626;25.386;2023-03-03T15:14:22;20.53;;;17.13;;
8060;SDS011;4073;42.626;25.386;2023-03-03T15:16:52;22.53;;;15.90;;
8060;SDS011;4073;42.626;25.386;2023-03-03T15:24:33;19.73;;;14.80;;
8060;SDS011;4073;42.626;25.386;2023-03-03T15:27:03;18.23;;;13.90;;
8060;SDS011;4073;42.626;25.386;2023-03-03T15:29:53;17.33;;;14.83;;
8060;SDS011;4073;42.626;25.386;2023-03-03T15:43:26;25.40;;;18.47;;
8060;SDS011;4073;42.626;25.386;2023-03-03T15:48:47;22.93;;;19.53;;
8060;SDS011;4073;42.626;25.386;2023-03-03T15:51:28;23.70;;;18.70;;
8060;SDS011;4073;42.626;25.386;2023-03-03T16:05:42;34.03;;;23.27;;
8060;SDS011;4073;42.626;25.386;2023-03-03T16:08:15;48.70;;;38.30;;
8060;SDS011;4073;42.626;25.386;2023-03-03T16:15:53;27.90;;;18.43;;
8060;SDS011;4073;42.626;25.386;2023-03-03T16:23:51;34.67;;;27.33;;
8060;SDS011;4073;42.626;25.386;2023-03-03T16:32:16;26.10;;;19.67;;
8060;SDS011;4073;42.626;25.386;2023-03-03T16:34:55;21.10;;;15.57;;
8060;SDS011;4073;42.626;25.386;2023-03-03T16:40:22;23.40;;;17.33;;
8060;SDS011;4073;42.626;25.386;2023-03-03T16:45:33;22.07;;;17.47;;
8060;SDS011;4073;42.626;25.386;2023-03-03T16:56:20;27.20;;;19.43;;
8060;SDS011;4073;42.626;25.386;2023-03-03T17:04:02;42.23;;;25.80;;
8060;SDS011;4073;42.626;25.386;2023-03-03T17:06:53;19.20;;;15.63;;
8060;SDS011;4073;42.626;25.386;2023-03-03T17:15:10;28.27;;;21.50;;
8060;SDS011;4073;42.626;25.386;2023-03-03T17:20:49;32.50;;;24.07;;
8060;SDS011;4073;42.626;25.386;2023-03-03T17:31:43;33.53;;;24.93;;
8060;SDS011;4073;42.626;25.386;2023-03-03T17:37:05;34.27;;;25.80;;
8060;SDS011;4073;42.626;25.386;2023-03-03T17:45:32;30.17;;;22.37;;
8060;SDS011;4073;42.626;25.386;2023-03-03T17:53:50;34.63;;;25.80;;
8060;SDS011;4073;42.626;25.386;2023-03-03T18:00:36;31.87;;;25.13;;
8060;SDS011;4073;42.626;25.386;2023-03-03T18:13:38;26.93;;;19.80;;
8060;SDS011;4073;42.626;25.386;2023-03-03T18:22:16;26.90;;;21.57;;
8060;SDS011;4073;42.626;25.386;2023-03-03T18:26:49;28.00;;;22.17;;
8060;SDS011;4073;42.626;25.386;2023-03-03T18:34:40;26.37;;;19.40;;
8060;SDS011;4073;42.626;25.386;2023-03-03T18:37:07;19.93;;;16.07;;
8060;SDS011;4073;42.626;25.386;2023-03-03T18:39:47;19.17;;;15.43;;
8060;SDS011;4073;42.626;25.386;2023-03-03T18:44:39;26.30;;;20.20;;
8060;SDS011;4073;42.626;25.386;2023-03-03T18:47:05;27.97;;;21.60;;
8060;SDS011;4073;42.626;25.386;2023-03-03T18:52:30;27.57;;;22.90;;
8060;SDS011;4073;42.626;25.386;2023-03-03T18:55:19;24.50;;;20.17;;
8060;SDS011;4073;42.626;25.386;2023-03-03T18:57:59;22.90;;;17.93;;
8060;SDS011;4073;42.626;25.386;2023-03-03T19:00:28;24.53;;;17.30;;
8060;SDS011;4073;42.626;25.386;2023-03-03T19:02:56;22.43;;;18.40;;
8060;SDS011;4073;42.626;25.386;2023-03-03T19:05:24;25.47;;;18.17;;
8060;SDS011;4073;42.626;25.386;2023-03-03T19:08:01;25.13;;;18.63;;
8060;SDS011;4073;42.626;25.386;2023-03-03T19:16:02;29.93;;;22.27;;
8060;SDS011;4073;42.626;25.386;2023-03-03T19:18:57;24.87;;;21.57;;
8060;SDS011;4073;42.626;25.386;2023-03-03T19:21:25;35.40;;;26.47;;
8060;SDS011;4073;42.626;25.386;2023-03-03T19:23:59;27.13;;;19.10;;
8060;SDS011;4073;42.626;25.386;2023-03-03T19:45:45;23.93;;;18.20;;
8060;SDS011;4073;42.626;25.386;2023-03-03T20:18:26;26.00;;;21.20;;
8060;SDS011;4073;42.626;25.386;2023-03-03T20:21:18;29.03;;;23.07;;
8060;SDS011;4073;42.626;25.386;2023-03-03T20:26:53;37.00;;;27.23;;
8060;SDS011;4073;42.626;25.386;2023-03-03T20:32:34;42.10;;;29.47;;
8060;SDS011;4073;42.626;25.386;2023-03-03T20:35:27;33.03;;;24.50;;
8060;SDS011;4073;42.626;25.386;2023-03-03T20:51:54;27.17;;;20.23;;
8060;SDS011;4073;42.626;25.386;2023-03-03T20:57:23;25.00;;;17.73;;
8060;SDS011;4073;42.626;25.386;2023-03-03T20:59:59;21.27;;;16.93;;
8060;SDS011;4073;42.626;25.386;2023-03-03T21:05:30;20.37;;;16.07;;
8060;SDS011;4073;42.626;25.386;2023-03-03T21:08:02;22.97;;;16.97;;
8060;SDS011;4073;42.626;25.386;2023-03-03T21:10:30;27.57;;;19.10;;
8060;SDS011;4073;42.626;25.386;2023-03-03T21:15:53;22.80;;;18.73;;
8060;SDS011;4073;42.626;25.386;2023-03-03T21:18:21;28.37;;;20.17;;
8060;SDS011;4073;42.626;25.386;2023-03-03T21:20:50;26.87;;;21.13;;
8060;SDS011;4073;42.626;25.386;2023-03-03T21:23:15;27.27;;;20.17;;
8060;SDS011;4073;42.626;25.386;2023-03-03T21:30:57;29.97;;;21.27;;
8060;SDS011;4073;42.626;25.386;2023-03-03T21:33:42;24.33;;;19.37;;
8060;SDS011;4073;42.626;25.386;2023-03-03T21:36:10;30.27;;;21.17;;
8060;SDS011;4073;42.626;25.386;2023-03-03T21:38:40;29.77;;;22.13;;
8060;SDS011;4073;42.626;25.386;2023-03-03T21:41:06;28.83;;;20.93;;
8060;SDS011;4073;42.626;25.386;2023-03-03T21:45:59;25.87;;;19.23;;
8060;SDS011;4073;42.626;25.386;2023-03-03T21:48:25;28.17;;;20.40;;
8060;SDS011;4073;42.626;25.386;2023-03-03T21:50:50;24.97;;;18.33;;
8060;SDS011;4073;42.626;25.386;2023-03-03T21:53:16;22.93;;;18.00;;
8060;SDS011;4073;42.626;25.386;2023-03-03T21:55:43;26.57;;;17.93;;
8060;SDS011;4073;42.626;25.386;2023-03-03T21:58:13;24.10;;;17.83;;
8060;SDS011;4073;42.626;25.386;2023-03-03T22:00:39;25.07;;;16.43;;
8060;SDS011;4073;42.626;25.386;2023-03-03T22:03:04;23.40;;;17.03;;
8060;SDS011;4073;42.626;25.386;2023-03-03T22:05:29;21.13;;;15.77;;
8060;SDS011;4073;42.626;25.386;2023-03-03T22:07:55;21.17;;;15.00;;
8060;SDS011;4073;42.626;25.386;2023-03-03T22:10:20;18.43;;;14.47;;
8060;SDS011;4073;42.626;25.386;2023-03-03T22:12:46;23.43;;;16.07;;
8060;SDS011;4073;42.626;25.386;2023-03-03T22:15:11;22.27;;;14.70;;
8060;SDS011;4073;42.626;25.386;2023-03-03T22:17:37;19.93;;;15.87;;
8060;SDS011;4073;42.626;25.386;2023-03-03T22:20:04;21.00;;;15.13;;
8060;SDS011;4073;42.626;25.386;2023-03-03T22:22:31;25.10;;;14.77;;